Time;durP1;ratioP1;P1;durP2;ratioP2;P2;SDS_P1;SDS_P2;PMS_P1;PMS_P2;Temp;Humidity;BMP_temperature;BMP_pressure;BME280_temperature;BME280_humidity;BME280_pressure;Samples;Min_cycle;Max_cycle;Signal;HPM_P1;HPM_P2
2021/04/14 00:01:59;;;;;;;2.78;0.93;;;0.90;99.90;;;;;;5072342;28;20025;-47
2021/04/14 00:04:25;;;;;;;1.08;0.70;;;0.80;99.90;;;;;;5072526;28;20028;-48
2021/04/14 00:06:54;;;;;;;3.03;0.93;;;0.70;99.90;;;;;;5072413;28;20544;-47
2021/04/14 00:09:19;;;;;;;7.35;1.02;;;0.70;99.90;;;;;;5072202;28;20078;-46
2021/04/14 00:11:45;;;;;;;8.02;1.10;;;0.60;99.90;;;;;;5071362;28;20024;-48
2021/04/14 00:14:10;;;;;;;3.53;0.80;;;0.60;99.90;;;;;;5071904;28;20096;-49
2021/04/14 00:16:36;;;;;;;5.50;1.00;;;0.60;99.90;;;;;;5072259;28;20036;-47
2021/04/14 00:19:02;;;;;;;2.25;0.93;;;0.50;99.90;;;;;;5072077;28;20432;-48
2021/04/14 00:21:28;;;;;;;5.60;0.80;;;0.50;99.90;;;;;;5071192;28;20047;-47
2021/04/14 00:23:55;;;;;;;3.30;1.40;;;0.40;99.90;;;;;;5071824;28;20039;-46
2021/04/14 00:26:21;;;;;;;3.78;0.90;;;0.40;99.90;;;;;;5071062;28;20029;-46
2021/04/14 00:28:46;;;;;;;5.28;1.27;;;0.30;99.90;;;;;;5071983;28;20035;-47
2021/04/14 00:31:12;;;;;;;6.10;1.10;;;0.40;99.90;;;;;;5071690;28;20032;-46
2021/04/14 00:33:38;;;;;;;6.32;1.08;;;0.30;99.90;;;;;;5071994;28;20107;-45
2021/04/14 00:36:04;;;;;;;3.58;1.20;;;0.30;99.90;;;;;;5071898;28;20036;-46
2021/04/14 00:38:30;;;;;;;4.97;1.20;;;0.20;99.90;;;;;;5071507;28;20103;-49
2021/04/14 00:41:07;;;;;;;3.72;1.15;;;0.20;99.90;;;;;;5070737;28;20036;-46
2021/04/14 00:43:35;;;;;;;3.42;1.13;;;0.20;99.90;;;;;;5071366;28;20108;-47
2021/04/14 00:46:01;;;;;;;2.40;1.00;;;0.20;99.90;;;;;;5071479;28;20024;-46
2021/04/14 00:48:28;;;;;;;7.72;1.30;;;0.20;99.90;;;;;;5066094;28;20025;-46
2021/04/14 00:50:54;;;;;;;7.25;1.40;;;0.20;99.90;;;;;;5058380;28;20478;-48
2021/04/14 00:53:20;;;;;;;7.03;1.30;;;0.20;99.90;;;;;;5073131;28;20391;-47
2021/04/14 00:55:46;;;;;;;2.00;1.10;;;0.20;99.90;;;;;;5072382;28;20128;-48
2021/04/14 00:58:12;;;;;;;3.55;1.25;;;0.20;99.90;;;;;;5073272;28;20060;-47
2021/04/14 01:00:47;;;;;;;7.30;2.33;;;0.30;99.90;;;;;;5073287;28;20052;-46
2021/04/14 01:03:25;;;;;;;6.70;1.55;;;0.30;99.90;;;;;;5073097;28;20119;-45
2021/04/14 01:05:53;;;;;;;3.72;1.05;;;0.30;99.90;;;;;;5073151;28;20039;-47
2021/04/14 01:08:21;;;;;;;3.38;1.10;;;0.30;99.90;;;;;;5071849;28;20166;-49
2021/04/14 01:10:46;;;;;;;6.78;1.58;;;0.30;99.90;;;;;;5072281;28;20544;-46
2021/04/14 01:13:13;;;;;;;7.70;1.52;;;0.20;99.90;;;;;;5072966;28;20059;-47
2021/04/14 01:15:41;;;;;;;3.28;1.00;;;0.20;99.90;;;;;;5072986;28;20495;-49
2021/04/14 01:18:08;;;;;;;4.07;1.13;;;0.20;99.90;;;;;;5072963;28;20456;-47
2021/04/14 01:20:35;;;;;;;7.70;1.27;;;0.10;99.90;;;;;;5072851;28;20024;-48
2021/04/14 01:23:00;;;;;;;2.90;1.25;;;0.20;99.90;;;;;;5072810;28;20107;-45
2021/04/14 01:25:34;;;;;;;6.45;1.30;;;0.20;99.90;;;;;;5071943;28;20056;-46
2021/04/14 01:27:59;;;;;;;6.00;1.45;;;0.20;99.90;;;;;;5072936;28;20104;-47
2021/04/14 01:30:28;;;;;;;3.63;1.30;;;0.20;99.90;;;;;;5072665;28;20433;-46
2021/04/14 01:32:54;;;;;;;3.40;1.13;;;0.20;99.90;;;;;;5072472;28;20399;-45
2021/04/14 01:35:22;;;;;;;6.63;1.75;;;0.20;99.90;;;;;;5072614;28;20041;-46
2021/04/14 01:37:51;;;;;;;4.75;1.20;;;0.20;99.90;;;;;;5072900;28;20078;-46
2021/04/14 01:40:19;;;;;;;7.15;1.20;;;0.20;99.90;;;;;;5071567;28;20048;-49
2021/04/14 01:42:45;;;;;;;3.17;1.00;;;0.20;99.90;;;;;;5072581;28;20016;-46
2021/04/14 01:45:13;;;;;;;3.00;1.20;;;0.20;99.90;;;;;;5072373;28;20139;-46
2021/04/14 01:47:38;;;;;;;7.43;1.90;;;0.10;99.90;;;;;;5072657;28;20067;-47
2021/04/14 01:50:06;;;;;;;3.28;1.05;;;0.10;99.90;;;;;;5072577;28;20036;-47
2021/04/14 01:52:32;;;;;;;4.93;1.13;;;0.10;99.90;;;;;;5072505;28;20052;-45
2021/04/14 01:54:57;;;;;;;5.30;1.20;;;0.00;99.90;;;;;;5072424;28;20066;-47
2021/04/14 01:57:23;;;;;;;8.65;1.33;;;-0.10;99.90;;;;;;5071533;28;20136;-48
2021/04/14 01:59:49;;;;;;;5.32;0.82;;;-0.10;99.90;;;;;;5072489;28;20074;-47
2021/04/14 02:02:15;;;;;;;6.00;1.17;;;-0.10;99.90;;;;;;5072292;28;20520;-45
2021/04/14 02:04:41;;;;;;;5.47;1.50;;;-0.10;99.90;;;;;;5072510;28;20020;-45
2021/04/14 02:07:06;;;;;;;8.00;1.33;;;-0.10;99.90;;;;;;5072624;28;20099;-47
2021/04/14 02:09:32;;;;;;;3.10;1.23;;;-0.10;99.90;;;;;;5072384;28;20054;-48
2021/04/14 02:11:57;;;;;;;8.18;1.45;;;-0.10;99.90;;;;;;5071489;28;20025;-46
2021/04/14 02:14:23;;;;;;;7.03;1.10;;;-0.10;99.90;;;;;;5072164;28;20379;-45
2021/04/14 02:16:48;;;;;;;6.00;1.20;;;-0.10;99.90;;;;;;5072164;28;20085;-45
2021/04/14 02:19:14;;;;;;;7.97;1.30;;;-0.10;99.90;;;;;;5072270;28;20041;-48
2021/04/14 02:21:39;;;;;;;4.10;1.17;;;-0.20;99.90;;;;;;5071122;28;20445;-46
2021/04/14 02:24:05;;;;;;;4.88;1.10;;;-0.30;99.90;;;;;;5072290;28;20020;-45
2021/04/14 02:26:31;;;;;;;7.75;2.90;;;-0.30;99.90;;;;;;5071360;28;20178;-47
2021/04/14 02:28:56;;;;;;;5.93;1.27;;;-0.30;99.90;;;;;;5072393;28;20112;-45
2021/04/14 02:31:30;;;;;;;1.85;1.00;;;-0.40;99.90;;;;;;5071968;28;20031;-47
2021/04/14 02:34:05;;;;;;;5.60;1.20;;;-0.40;99.90;;;;;;5072363;28;20387;-45
2021/04/14 02:36:31;;;;;;;4.00;1.00;;;-0.40;99.90;;;;;;5072280;28;20033;-47
2021/04/14 02:38:57;;;;;;;4.93;1.10;;;-0.40;99.90;;;;;;5072324;28;20032;-47
2021/04/14 02:41:22;;;;;;;6.03;1.40;;;-0.40;99.90;;;;;;5071014;28;20371;-46
2021/04/14 02:43:50;;;;;;;6.78;0.93;;;-0.40;99.90;;;;;;5072176;28;20033;-47
2021/04/14 02:46:15;;;;;;;3.22;0.73;;;-0.40;99.90;;;;;;5075637;28;20063;-45
2021/04/14 02:48:41;;;;;;;8.80;1.08;;;-0.50;99.90;;;;;;5075925;28;20064;-48
2021/04/14 02:51:08;;;;;;;4.57;1.25;;;-0.50;99.90;;;;;;5075750;28;20028;-45
2021/04/14 02:53:33;;;;;;;2.65;0.88;;;-0.50;99.90;;;;;;5075721;28;20056;-47
2021/04/14 02:55:59;;;;;;;3.60;0.88;;;-0.60;99.90;;;;;;5074507;28;20090;-47
2021/04/14 02:58:25;;;;;;;5.60;1.10;;;-0.60;99.90;;;;;;5075654;28;20035;-45
2021/04/14 03:00:50;;;;;;;4.20;1.30;;;-0.60;99.90;;;;;;5075628;28;20033;-46
2021/04/14 03:03:16;;;;;;;5.18;1.10;;;-0.70;99.90;;;;;;5075407;28;20017;-47
2021/04/14 03:05:42;;;;;;;6.20;1.10;;;-0.70;99.90;;;;;;5075509;28;20388;-46
2021/04/14 03:08:07;;;;;;;5.75;1.02;;;-0.80;99.90;;;;;;5075652;28;20103;-46
2021/04/14 03:10:33;;;;;;;8.10;1.55;;;-0.70;99.90;;;;;;5074413;28;20032;-46
2021/04/14 03:12:59;;;;;;;6.78;1.50;;;-0.80;99.90;;;;;;5075344;28;20490;-46
2021/04/14 03:15:31;;;;;;;10.02;2.08;;;-0.70;99.90;;;;;;5075204;28;20031;-45
2021/04/14 03:17:57;;;;;;;8.98;1.35;;;-0.70;99.90;;;;;;5075269;28;20028;-46
2021/04/14 03:20:23;;;;;;;7.38;1.55;;;-0.70;99.90;;;;;;5075189;28;20033;-45
2021/04/14 03:22:50;;;;;;;6.75;1.40;;;-0.70;99.90;;;;;;5075171;28;20464;-47
2021/04/14 03:25:18;;;;;;;9.40;1.33;;;-0.70;99.90;;;;;;5074211;28;20024;-46
2021/04/14 03:27:44;;;;;;;9.38;1.40;;;-0.60;99.90;;;;;;5075028;28;20032;-48
2021/04/14 03:30:10;;;;;;;3.28;0.93;;;-0.60;99.90;;;;;;5075040;28;20047;-46
2021/04/14 03:32:36;;;;;;;9.82;1.50;;;-0.60;99.90;;;;;;5074837;28;20032;-46
2021/04/14 03:35:05;;;;;;;6.63;1.00;;;-0.60;99.90;;;;;;5074894;28;20078;-47
2021/04/14 03:37:30;;;;;;;8.05;1.80;;;-0.60;99.90;;;;;;5074977;28;20407;-48
2021/04/14 03:39:56;;;;;;;5.28;1.45;;;-0.60;99.90;;;;;;5074847;28;20024;-47
2021/04/14 03:42:21;;;;;;;7.60;1.30;;;-0.60;99.90;;;;;;5073575;28;20116;-45
2021/04/14 03:44:51;;;;;;;4.88;1.23;;;-0.60;99.90;;;;;;5074864;28;20043;-45
2021/04/14 03:47:17;;;;;;;6.32;1.92;;;-0.60;99.90;;;;;;5074804;28;20028;-46
2021/04/14 03:49:42;;;;;;;5.32;1.70;;;-0.70;99.90;;;;;;5074714;28;20054;-45
2021/04/14 03:52:08;;;;;;;9.43;1.55;;;-0.60;99.90;;;;;;5072615;28;20036;-46
2021/04/14 03:54:33;;;;;;;8.45;1.80;;;-0.60;99.90;;;;;;5074481;28;20384;-46
2021/04/14 03:56:59;;;;;;;5.90;1.45;;;-0.60;99.90;;;;;;5073306;28;20098;-45
2021/04/14 03:59:24;;;;;;;5.72;1.42;;;-0.50;99.90;;;;;;5074422;28;20025;-47
2021/04/14 04:01:53;;;;;;;12.23;1.80;;;-0.50;99.90;;;;;;5074468;28;20158;-46
2021/04/14 04:04:19;;;;;;;10.75;1.77;;;-0.60;99.90;;;;;;5069542;28;20069;-47
2021/04/14 04:06:44;;;;;;;7.78;1.40;;;-0.60;99.90;;;;;;5072974;28;20884;-47
2021/04/14 04:09:10;;;;;;;5.03;1.42;;;-0.60;99.90;;;;;;5073897;28;20032;-46
2021/04/14 04:11:35;;;;;;;13.60;1.80;;;-0.60;99.90;;;;;;5072844;28;20029;-45
2021/04/14 04:14:01;;;;;;;9.10;2.33;;;-0.60;99.90;;;;;;5074051;28;20086;-47
2021/04/14 04:16:27;;;;;;;6.05;1.33;;;-0.60;99.90;;;;;;5073682;28;20029;-49
2021/04/14 04:18:52;;;;;;;6.03;1.50;;;-0.50;99.90;;;;;;5073713;28;20032;-46
2021/04/14 04:21:18;;;;;;;3.72;1.10;;;-0.50;99.90;;;;;;5073932;28;20527;-48
2021/04/14 04:23:44;;;;;;;3.38;1.13;;;-0.50;99.90;;;;;;5072568;28;20025;-45
2021/04/14 04:26:10;;;;;;;5.88;1.40;;;-0.50;99.90;;;;;;5072732;28;20043;-46
2021/04/14 04:28:35;;;;;;;8.02;1.75;;;-0.40;99.90;;;;;;5073621;28;20426;-45
2021/04/14 04:31:01;;;;;;;8.43;1.65;;;-0.30;99.90;;;;;;5073798;28;20111;-45
2021/04/14 04:33:27;;;;;;;7.45;1.63;;;-0.30;99.90;;;;;;5073612;28;20028;-47
2021/04/14 04:35:52;;;;;;;7.35;1.88;;;-0.20;99.90;;;;;;5073295;28;20024;-46
2021/04/14 04:38:18;;;;;;;9.73;2.40;;;-0.20;99.90;;;;;;5073522;28;20156;-47
2021/04/14 04:40:44;;;;;;;9.00;2.00;;;-0.10;99.90;;;;;;5085754;28;20028;-45
2021/04/14 04:43:10;;;;;;;7.07;1.70;;;-0.10;99.90;;;;;;5093743;28;20032;-46
2021/04/14 04:45:36;;;;;;;6.25;2.60;;;0.00;99.90;;;;;;5093571;28;20092;-45
2021/04/14 04:48:03;;;;;;;7.75;1.75;;;0.00;99.90;;;;;;5093549;28;20538;-46
2021/04/14 04:50:31;;;;;;;8.30;1.50;;;0.00;99.90;;;;;;5091815;28;20056;-45
2021/04/14 04:52:59;;;;;;;6.65;1.60;;;0.10;99.90;;;;;;5073092;28;20035;-46
2021/04/14 04:55:25;;;;;;;12.15;1.40;;;0.20;99.90;;;;;;5071591;28;20043;-46
2021/04/14 04:57:51;;;;;;;5.13;1.70;;;0.40;99.90;;;;;;5073051;28;20037;-48
2021/04/14 05:00:18;;;;;;;5.00;1.65;;;0.50;99.90;;;;;;5073402;28;20044;-47
2021/04/14 05:02:43;;;;;;;4.38;1.50;;;0.70;99.90;;;;;;5073046;28;20103;-46
2021/04/14 05:05:13;;;;;;;9.15;1.80;;;1.00;99.90;;;;;;5073139;28;20483;-47
2021/04/14 05:07:38;;;;;;;13.40;3.38;;;1.20;99.90;;;;;;5070562;28;20039;-48
2021/04/14 05:10:05;;;;;;;6.45;1.77;;;1.60;99.90;;;;;;5071601;28;20115;-48
2021/04/14 05:12:31;;;;;;;9.18;2.58;;;1.90;99.90;;;;;;5072526;28;20138;-47
2021/04/14 05:14:56;;;;;;;10.63;1.80;;;2.30;99.90;;;;;;5073121;28;20031;-48
2021/04/14 05:17:22;;;;;;;5.95;1.30;;;2.60;99.90;;;;;;5072999;28;20418;-47
2021/04/14 05:19:47;;;;;;;14.68;1.73;;;3.00;99.90;;;;;;5072914;28;20100;-47
2021/04/14 05:22:13;;;;;;;4.80;1.27;;;3.40;99.90;;;;;;5072618;28;20036;-49
2021/04/14 05:24:38;;;;;;;10.38;1.80;;;3.90;99.90;;;;;;5069506;28;20532;-49
2021/04/14 05:27:04;;;;;;;10.90;2.35;;;4.40;99.90;;;;;;5071610;28;20416;-44
2021/04/14 05:29:30;;;;;;;12.18;1.88;;;5.00;99.90;;;;;;5072581;28;20031;-50
2021/04/14 05:31:57;;;;;;;6.28;1.73;;;5.60;99.10;;;;;;5072705;28;20376;-47
2021/04/14 05:34:22;;;;;;;10.07;1.80;;;6.20;96.20;;;;;;5072706;28;20487;-46
2021/04/14 05:36:48;;;;;;;5.50;1.17;;;6.70;94.10;;;;;;5072471;28;20067;-47
2021/04/14 05:39:13;;;;;;;5.90;1.30;;;7.30;92.90;;;;;;5073534;28;20020;-45
2021/04/14 05:41:39;;;;;;;6.15;1.45;;;7.90;91.60;;;;;;5091782;28;20039;-45
2021/04/14 05:44:04;;;;;;;5.93;1.67;;;8.20;90.20;;;;;;5092774;28;20098;-45
2021/04/14 05:46:30;;;;;;;7.80;1.00;;;8.40;89.10;;;;;;5092815;28;20029;-49
2021/04/14 05:48:56;;;;;;;4.28;1.80;;;8.50;86.30;;;;;;5092958;28;20024;-46
2021/04/14 05:51:28;;;;;;;11.40;1.88;;;8.60;86.40;;;;;;5083702;28;20117;-49
2021/04/14 05:53:54;;;;;;;9.45;2.00;;;8.70;85.30;;;;;;5072249;28;20025;-46
2021/04/14 05:56:22;;;;;;;5.40;1.27;;;9.10;84.90;;;;;;5071418;28;20341;-45
2021/04/14 05:58:48;;;;;;;4.70;1.90;;;9.50;83.60;;;;;;5072364;28;20031;-45
2021/04/14 06:01:17;;;;;;;10.57;1.80;;;10.00;81.70;;;;;;5072616;28;20101;-47
2021/04/14 06:03:44;;;;;;;6.40;1.50;;;10.40;78.50;;;;;;5072261;28;20453;-52
2021/04/14 06:06:09;;;;;;;5.90;1.50;;;10.90;78.50;;;;;;5072058;28;20132;-46
2021/04/14 06:08:35;;;;;;;5.80;1.60;;;11.30;77.60;;;;;;5070541;28;20504;-50
2021/04/14 06:11:01;;;;;;;2.28;1.10;;;11.80;76.10;;;;;;5071187;28;20383;-46
2021/04/14 06:13:27;;;;;;;6.45;1.45;;;12.40;74.10;;;;;;5071906;28;20099;-47
2021/04/14 06:15:54;;;;;;;7.28;1.58;;;12.80;73.40;;;;;;5071978;28;20023;-49
2021/04/14 06:18:20;;;;;;;8.68;1.92;;;13.20;72.50;;;;;;5069849;28;20184;-46
2021/04/14 06:20:46;;;;;;;7.68;1.50;;;13.30;71.20;;;;;;5074518;28;20050;-45
2021/04/14 06:23:16;;;;;;;3.92;1.50;;;13.60;70.90;;;;;;5072062;28;20020;-45
2021/04/14 06:25:55;;;;;;;9.93;2.05;;;13.70;68.60;;;;;;5069695;28;20027;-48
2021/04/14 06:28:22;;;;;;;6.38;1.88;;;13.60;69.30;;;;;;5071936;28;20074;-49
2021/04/14 06:30:48;;;;;;;4.78;1.55;;;13.30;68.50;;;;;;5075960;28;20025;-46
2021/04/14 06:33:15;;;;;;;7.57;1.83;;;13.30;69.00;;;;;;5074472;28;20051;-46
2021/04/14 06:35:41;;;;;;;5.82;1.77;;;13.30;69.40;;;;;;5075458;28;20024;-45
2021/04/14 06:38:06;;;;;;;8.25;1.98;;;13.20;69.50;;;;;;5075646;28;20031;-47
2021/04/14 06:40:53;;;;;;;8.15;2.05;;;12.80;70.00;;;;;;5074782;28;20648;-48
2021/04/14 06:43:27;;;;;;;;;;;12.20;68.00;;;;;;5075999;28;20069;-45
2021/04/14 06:45:59;;;;;;;5.15;1.70;;;11.80;69.10;;;;;;5075278;28;19908;-46
2021/04/14 06:48:35;;;;;;;4.90;1.50;;;11.40;69.10;;;;;;5071440;28;20509;-49
2021/04/14 06:51:04;;;;;;;9.27;2.08;;;11.20;70.90;;;;;;5061362;28;20110;-49
2021/04/14 06:53:41;;;;;;;9.63;1.98;;;10.90;71.30;;;;;;5075236;28;20035;-46
2021/04/14 06:56:15;;;;;;;7.35;2.00;;;10.60;71.90;;;;;;5074069;28;20056;-48
2021/04/14 06:58:47;;;;;;;8.25;2.10;;;10.60;71.90;;;;;;5074754;28;20103;-46
2021/04/14 07:01:26;;;;;;;6.93;1.80;;;10.50;70.40;;;;;;5075215;28;20028;-51
2021/04/14 07:04:15;;;;;;;9.77;2.30;;;10.20;70.70;;;;;;5075017;28;20044;-45
2021/04/14 07:06:43;;;;;;;4.50;1.70;;;10.20;71.60;;;;;;5074848;28;20021;-45
2021/04/14 07:09:17;;;;;;;8.85;1.92;;;10.50;71.50;;;;;;5075067;28;20035;-47
2021/04/14 07:11:43;;;;;;;9.05;1.80;;;10.70;70.80;;;;;;5074121;28;20172;-47
2021/04/14 07:14:12;;;;;;;7.65;2.45;;;10.50;71.40;;;;;;5073815;28;20031;-47
2021/04/14 07:16:49;;;;;;;6.85;2.10;;;10.40;71.30;;;;;;5075038;28;20518;-47
2021/04/14 07:19:25;;;;;;;6.97;1.92;;;10.50;71.50;;;;;;5074696;28;20100;-46
2021/04/14 07:22:13;;;;;;;10.35;2.28;;;10.90;69.80;;;;;;5073592;28;20094;-47
2021/04/14 07:24:50;;;;;;;12.65;2.33;;;11.20;68.80;;;;;;5074761;28;20036;-46
2021/04/14 07:27:21;;;;;;;8.82;2.10;;;10.60;69.60;;;;;;5074221;28;20316;-47
2021/04/14 07:30:01;;;;;;;7.97;1.95;;;10.60;69.90;;;;;;5074373;28;20540;-46
2021/04/14 07:32:41;;;;;;;13.77;2.47;;;10.60;70.00;;;;;;5075163;28;20468;-45
2021/04/14 07:35:27;;;;;;;8.15;1.90;;;10.50;70.10;;;;;;5074524;28;20130;-46
2021/04/14 07:38:15;;;;;;;8.63;2.28;;;10.90;70.10;;;;;;5074454;28;20088;-47
2021/04/14 07:40:57;;;;;;;9.90;2.70;;;11.40;69.70;;;;;;5073753;28;20335;-47
2021/04/14 07:43:33;;;;;;;4.88;1.90;;;12.20;66.20;;;;;;5074460;28;20024;-47
2021/04/14 07:45:59;;;;;;;7.20;2.35;;;12.40;65.80;;;;;;5074392;28;20102;-46
2021/04/14 07:48:28;;;;;;;6.18;2.00;;;12.20;66.80;;;;;;5074236;28;20493;-46
2021/04/14 07:50:59;;;;;;;8.35;2.10;;;12.90;66.60;;;;;;5074252;28;20024;-48
2021/04/14 07:53:31;;;;;;;8.98;2.28;;;13.60;64.90;;;;;;5074006;28;20024;-49
2021/04/14 07:56:06;;;;;;;10.18;1.95;;;14.70;63.10;;;;;;5071683;28;20033;-48
2021/04/14 07:58:33;;;;;;;17.27;3.40;;;15.60;62.30;;;;;;5074270;28;20028;-47
2021/04/14 08:01:20;;;;;;;8.63;2.28;;;16.50;61.50;;;;;;5073926;28;20020;-47
2021/04/14 08:03:47;;;;;;;9.32;2.20;;;16.00;58.50;;;;;;5073944;28;20586;-48
2021/04/14 08:06:23;;;;;;;9.55;2.42;;;15.20;61.40;;;;;;5074207;28;20024;-49
2021/04/14 08:08:48;;;;;;;7.50;1.85;;;14.60;59.60;;;;;;5073811;28;20020;-47
2021/04/14 08:11:30;;;;;;;8.52;2.30;;;14.10;61.00;;;;;;5071957;28;20498;-47
2021/04/14 08:14:23;;;;;;;10.07;2.40;;;14.30;58.30;;;;;;5073683;28;20103;-44
2021/04/14 08:16:52;;;;;;;10.80;2.70;;;14.10;58.20;;;;;;5073826;28;20104;-45
2021/04/14 08:19:17;;;;;;;11.23;3.15;;;13.40;60.60;;;;;;5073703;28;20414;-47
2021/04/14 08:22:00;;;;;;;11.45;2.58;;;13.70;60.80;;;;;;5073684;28;20061;-47
2021/04/14 08:24:27;;;;;;;6.55;2.50;;;12.90;60.00;;;;;;5073749;28;20021;-46
2021/04/14 08:26:56;;;;;;;8.68;2.17;;;12.50;61.50;;;;;;5077172;28;20111;-48
2021/04/14 08:29:21;;;;;;;7.00;1.90;;;12.30;62.50;;;;;;5073308;28;20547;-49
2021/04/14 08:31:49;;;;;;;8.88;2.30;;;13.30;61.40;;;;;;5073310;28;20044;-48
2021/04/14 08:34:35;;;;;;;7.15;2.03;;;13.80;59.30;;;;;;5073483;28;20024;-49
2021/04/14 08:37:08;;;;;;;6.05;1.80;;;14.80;58.70;;;;;;5073265;28;20033;-47
2021/04/14 08:39:33;;;;;;;8.02;2.40;;;15.50;57.50;;;;;;5073300;28;20020;-46
2021/04/14 08:42:20;;;;;;;8.40;2.10;;;15.20;57.60;;;;;;5071472;28;20047;-47
2021/04/14 08:44:49;;;;;;;3.97;1.92;;;15.20;55.50;;;;;;5073212;28;20021;-47
2021/04/14 08:47:28;;;;;;;8.35;2.70;;;15.00;56.80;;;;;;5073365;28;20048;-46
2021/04/14 08:50:08;;;;;;;10.95;2.35;;;14.90;56.40;;;;;;5073070;28;20514;-46
2021/04/14 08:52:56;;;;;;;7.53;2.33;;;15.40;54.20;;;;;;5073151;28;20063;-45
2021/04/14 08:55:24;;;;;;;5.47;2.10;;;15.80;51.90;;;;;;5071637;28;20416;-47
2021/04/14 08:57:52;;;;;;;5.07;2.13;;;15.60;55.30;;;;;;5073013;28;20040;-50
2021/04/14 09:00:20;;;;;;;11.50;2.42;;;15.50;54.90;;;;;;5072986;28;20483;-46
2021/04/14 09:02:46;;;;;;;5.45;1.40;;;15.80;53.20;;;;;;5073095;28;20024;-43
2021/04/14 09:05:18;;;;;;;6.25;1.80;;;15.50;55.60;;;;;;5072877;28;20025;-45
2021/04/14 09:07:44;;;;;;;6.57;1.52;;;15.00;55.90;;;;;;5072735;28;20040;-43
2021/04/14 09:10:32;;;;;;;6.88;1.70;;;14.70;56.10;;;;;;5071686;28;20025;-44
2021/04/14 09:12:58;;;;;;;8.10;2.28;;;15.30;53.90;;;;;;5072668;28;20024;-44
2021/04/14 09:15:23;;;;;;;4.68;1.48;;;15.90;53.20;;;;;;5072784;28;20055;-45
2021/04/14 09:18:09;;;;;;;4.18;1.77;;;16.40;53.70;;;;;;5072710;28;20040;-43
2021/04/14 09:20:39;;;;;;;6.37;2.17;;;16.10;52.30;;;;;;5072396;28;20060;-45
2021/04/14 09:23:10;;;;;;;4.05;1.65;;;15.60;53.10;;;;;;5072458;28;20095;-43
2021/04/14 09:25:48;;;;;;;6.35;1.98;;;15.10;54.40;;;;;;5071673;28;20483;-44
2021/04/14 09:28:26;;;;;;;5.65;1.90;;;15.20;54.00;;;;;;5072675;28;20055;-45
2021/04/14 09:31:08;;;;;;;4.13;1.40;;;15.60;53.10;;;;;;5072253;28;20069;-49
2021/04/14 09:33:47;;;;;;;6.20;1.90;;;15.60;53.00;;;;;;5072630;28;20039;-47
2021/04/14 09:36:27;;;;;;;5.07;1.60;;;16.70;51.30;;;;;;5072407;28;20119;-49
2021/04/14 09:38:54;;;;;;;5.88;1.90;;;16.70;52.40;;;;;;5072592;28;20411;-48
2021/04/14 09:41:25;;;;;;;3.70;1.45;;;16.80;51.00;;;;;;5071327;28;20012;-46
2021/04/14 09:43:53;;;;;;;4.03;1.48;;;16.10;51.00;;;;;;5072310;28;20016;-46
2021/04/14 09:46:34;;;;;;;4.80;1.35;;;15.40;51.90;;;;;;5072520;28;20024;-47
2021/04/14 09:49:10;;;;;;;4.82;1.63;;;15.90;51.10;;;;;;5072499;28;20027;-47
2021/04/14 09:51:39;;;;;;;7.40;1.55;;;15.80;51.70;;;;;;5072368;28;20098;-47
2021/04/14 09:54:18;;;;;;;5.25;1.30;;;15.20;52.20;;;;;;5072211;28;20028;-47
2021/04/14 09:56:48;;;;;;;3.80;1.25;;;14.60;52.60;;;;;;5071322;28;20489;-46
2021/04/14 09:59:34;;;;;;;7.40;1.48;;;14.80;53.00;;;;;;5072343;28;20020;-47
2021/04/14 10:02:06;;;;;;;3.05;1.10;;;14.40;53.10;;;;;;5072160;28;20036;-47
2021/04/14 10:04:36;;;;;;;4.18;1.77;;;14.30;53.70;;;;;;5072364;28;20119;-45
2021/04/14 10:07:05;;;;;;;6.05;1.80;;;14.30;52.40;;;;;;5072265;28;20025;-45
2021/04/14 10:09:36;;;;;;;4.75;1.42;;;13.80;53.70;;;;;;5072381;28;20669;-47
2021/04/14 10:12:12;;;;;;;3.15;0.88;;;13.40;54.40;;;;;;5071229;28;20481;-47
2021/04/14 10:14:47;;;;;;;5.10;1.52;;;13.00;54.40;;;;;;5072173;28;20040;-47
2021/04/14 10:17:13;;;;;;;2.08;1.30;;;12.70;54.60;;;;;;5072145;28;20032;-46
2021/04/14 10:19:39;;;;;;;3.17;1.45;;;12.60;55.20;;;;;;5072165;28;20492;-47
2021/04/14 10:22:07;;;;;;;2.92;1.30;;;12.40;55.40;;;;;;5072156;28;20029;-47
2021/04/14 10:24:33;;;;;;;6.45;1.60;;;12.30;55.30;;;;;;5072168;28;20016;-45
2021/04/14 10:26:58;;;;;;;5.47;1.58;;;12.10;54.80;;;;;;5071025;28;20078;-46
2021/04/14 10:29:34;;;;;;;2.17;0.82;;;11.90;54.30;;;;;;5072073;28;20071;-47
2021/04/14 10:32:00;;;;;;;6.88;1.75;;;11.70;55.20;;;;;;5072061;28;20356;-47
2021/04/14 10:34:35;;;;;;;7.40;1.65;;;11.60;54.90;;;;;;5072036;28;20039;-46
2021/04/14 10:37:12;;;;;;;3.03;1.25;;;11.50;55.50;;;;;;5072008;28;20041;-45
2021/04/14 10:39:38;;;;;;;2.90;1.05;;;11.40;52.40;;;;;;5071798;28;20040;-46
2021/04/14 10:42:17;;;;;;;5.60;1.50;;;11.40;53.90;;;;;;5070790;28;20071;-46
2021/04/14 10:44:43;;;;;;;4.07;1.30;;;11.30;54.10;;;;;;5071811;28;20024;-47
2021/04/14 10:47:32;;;;;;;3.80;1.10;;;11.50;54.40;;;;;;5071757;28;20025;-48
2021/04/14 10:50:06;;;;;;;3.17;1.50;;;11.70;54.30;;;;;;5071628;28;20108;-46
2021/04/14 10:52:33;;;;;;;4.43;0.95;;;11.90;53.20;;;;;;5071849;28;20021;-47
2021/04/14 10:55:08;;;;;;;4.47;1.60;;;12.30;53.20;;;;;;5070820;28;20419;-48
2021/04/14 10:57:37;;;;;;;3.03;1.15;;;12.60;52.10;;;;;;5071651;28;20071;-47
2021/04/14 11:00:14;;;;;;;2.83;1.13;;;12.60;50.90;;;;;;5071629;28;20373;-48
2021/04/14 11:02:46;;;;;;;2.33;0.88;;;12.30;50.40;;;;;;5071674;28;20020;-47
2021/04/14 11:05:14;;;;;;;4.28;0.88;;;11.90;51.30;;;;;;5072248;28;20111;-47
2021/04/14 11:07:42;;;;;;;1.98;0.60;;;11.70;50.90;;;;;;5075401;28;20066;-48
2021/04/14 11:10:11;;;;;;;4.07;1.02;;;11.40;50.70;;;;;;5074282;28;20024;-48
2021/04/14 11:12:43;;;;;;;3.10;1.27;;;10.90;51.60;;;;;;5075125;28;20032;-45
2021/04/14 11:15:23;;;;;;;4.00;1.40;;;10.70;52.90;;;;;;5074874;28;20457;-50
2021/04/14 11:17:58;;;;;;;6.40;1.30;;;10.40;55.00;;;;;;5075241;28;20020;-47
2021/04/14 11:20:26;;;;;;;3.15;0.98;;;10.20;56.40;;;;;;5074965;28;20029;-48
2021/04/14 11:22:55;;;;;;;6.63;1.15;;;10.10;57.30;;;;;;5074826;28;20016;-45
2021/04/14 11:25:26;;;;;;;2.88;1.67;;;10.10;56.80;;;;;;5073938;28;20520;-48
2021/04/14 11:28:11;;;;;;;4.75;1.30;;;10.10;57.10;;;;;;5075000;28;20020;-48
2021/04/14 11:30:53;;;;;;;3.92;1.40;;;10.10;57.60;;;;;;5075052;28;20024;-45
2021/04/14 11:33:20;;;;;;;5.28;1.15;;;10.20;57.00;;;;;;5075759;28;20058;-46
2021/04/14 11:35:50;;;;;;;2.95;0.98;;;10.30;56.70;;;;;;5074703;28;20476;-47
2021/04/14 11:38:39;;;;;;;3.08;1.05;;;10.50;56.50;;;;;;5074853;28;20021;-46
2021/04/14 11:41:30;;;;;;;4.93;1.17;;;10.70;56.00;;;;;;5073792;28;20030;-45
2021/04/14 11:43:56;;;;;;;2.47;0.90;;;11.00;54.00;;;;;;5073169;23;20515;-48
2021/04/14 11:46:33;;;;;;;1.83;0.90;;;11.00;54.20;;;;;;5055186;28;20043;-48
2021/04/14 11:49:05;;;;;;;3.38;1.00;;;11.00;54.50;;;;;;5055072;28;20024;-47
2021/04/14 11:51:45;;;;;;;3.72;1.00;;;11.00;54.60;;;;;;5065601;28;20650;-47
2021/04/14 11:54:16;;;;;;;3.25;1.33;;;10.90;54.50;;;;;;5075217;28;20033;-50
2021/04/14 11:57:11;;;;;;;4.95;1.20;;;10.80;54.50;;;;;;5073811;28;20025;-48
2021/04/14 11:59:40;;;;;;;5.50;1.30;;;10.50;54.60;;;;;;5064934;28;20044;-46
2021/04/14 12:02:25;;;;;;;4.38;1.40;;;10.30;55.50;;;;;;5074289;28;20388;-45
2021/04/14 12:04:59;;;;;;;5.05;1.13;;;10.00;56.20;;;;;;5074296;28;20025;-47
2021/04/14 12:07:24;;;;;;;4.38;1.67;;;9.90;57.00;;;;;;5074199;28;20066;-47
2021/04/14 12:09:50;;;;;;;3.95;1.20;;;9.70;57.50;;;;;;5074405;28;20201;-47
2021/04/14 12:12:17;;;;;;;3.13;1.10;;;9.60;58.00;;;;;;5073751;28;20060;-47
2021/04/14 12:14:42;;;;;;;4.28;1.40;;;9.50;58.40;;;;;;5074123;28;20099;-46
2021/04/14 12:17:08;;;;;;;7.70;1.27;;;9.60;58.70;;;;;;5073833;28;20483;-46
2021/04/14 12:19:33;;;;;;;2.22;1.08;;;9.70;58.60;;;;;;5073924;28;20423;-46
2021/04/14 12:22:00;;;;;;;2.08;0.50;;;9.70;59.00;;;;;;5073915;28;20028;-47
2021/04/14 12:24:26;;;;;;;2.78;1.20;;;9.90;59.80;;;;;;5073871;28;20111;-49
2021/04/14 12:26:52;;;;;;;2.53;0.80;;;10.00;59.50;;;;;;5072872;28;20035;-47
2021/04/14 12:29:18;;;;;;;5.25;1.20;;;10.20;58.90;;;;;;5073703;28;20034;-47
2021/04/14 12:31:48;;;;;;;5.03;1.20;;;10.40;58.60;;;;;;5074074;28;20032;-46
2021/04/14 12:34:14;;;;;;;5.22;1.50;;;10.50;58.50;;;;;;5074556;28;20387;-46
2021/04/14 12:36:40;;;;;;;3.30;1.00;;;10.60;59.10;;;;;;5055445;28;20524;-48
2021/04/14 12:39:07;;;;;;;2.30;1.05;;;10.80;58.40;;;;;;5053413;28;20032;-47
2021/04/14 12:41:34;;;;;;;3.08;0.70;;;11.00;58.10;;;;;;5032416;28;20049;-45
2021/04/14 12:44:00;;;;;;;5.70;0.95;;;11.10;57.70;;;;;;5033353;28;20037;-47
2021/04/14 12:46:25;;;;;;;1.77;0.88;;;11.10;57.50;;;;;;5033175;28;20384;-47
2021/04/14 12:48:51;;;;;;;1.30;0.65;;;11.10;57.60;;;;;;5033666;28;20029;-49
2021/04/14 12:51:47;;;;;;;0.80;0.57;;;11.00;57.70;;;;;;5059709;28;20025;-47
2021/04/14 12:54:19;;;;;;;1.20;0.57;;;10.90;57.90;;;;;;5065882;28;20078;-47
2021/04/14 12:56:58;;;;;;;1.05;0.57;;;10.80;57.70;;;;;;5051665;28;20464;-46
2021/04/14 12:59:29;;;;;;;1.73;0.90;;;10.70;57.80;;;;;;5052010;28;20021;-48
2021/04/14 13:02:03;;;;;;;0.98;0.60;;;10.60;57.70;;;;;;5052619;28;20020;-50